createdAt,value
2022-10-18T00:04:43.753Z,22.81
2022-10-18T00:09:50.309Z,22.77
2022-10-18T00:15:01.830Z,22.72
2022-10-18T00:20:15.983Z,22.67
2022-10-18T00:25:20.126Z,22.60
2022-10-18T00:30:25.664Z,22.56
2022-10-18T00:35:33.332Z,22.52
2022-10-18T00:40:46.696Z,22.51
2022-10-18T00:45:54.749Z,22.51
2022-10-18T00:50:58.513Z,22.50
2022-10-18T00:56:12.386Z,22.49
2022-10-18T01:05:21.168Z,22.44
2022-10-18T01:10:57.747Z,22.45
2022-10-18T01:16:21.072Z,22.44
2022-10-18T01:22:07.886Z,22.43
2022-10-18T01:27:34.199Z,22.42
2022-10-18T01:32:54.931Z,22.43
2022-10-18T01:38:12.533Z,22.40
2022-10-18T01:43:26.238Z,22.40
2022-10-18T01:48:36.812Z,22.36
2022-10-18T01:53:40.671Z,22.34
2022-10-18T01:59:09.138Z,22.32
2022-10-18T02:04:32.566Z,22.26
2022-10-18T02:09:58.989Z,22.21
2022-10-18T02:15:07.635Z,22.17
2022-10-18T02:20:16.727Z,22.12
2022-10-18T02:25:28.113Z,22.05
2022-10-18T02:31:03.141Z,22.01
2022-10-18T02:36:46.193Z,21.97
2022-10-18T02:41:58.647Z,21.94
2022-10-18T02:47:04.151Z,21.88
2022-10-18T02:52:16.052Z,21.81
2022-10-18T02:57:19.357Z,21.76
2022-10-18T03:07:27.717Z,21.66
2022-10-18T03:12:40.662Z,21.62
2022-10-18T03:18:10.165Z,21.60
2022-10-18T03:23:17.511Z,21.56
2022-10-18T03:28:23.674Z,21.53
2022-10-18T03:33:33.325Z,21.51
2022-10-18T03:38:38.837Z,21.48
2022-10-18T03:43:57.070Z,21.45
2022-10-18T03:49:06.244Z,21.42
2022-10-18T03:54:15.265Z,21.37
2022-10-18T03:59:20.991Z,21.33
2022-10-18T04:04:24.027Z,21.28
2022-10-18T04:09:34.322Z,21.24
2022-10-18T04:14:52.501Z,21.20
2022-10-18T04:19:56.946Z,21.18
2022-10-18T04:25:04.754Z,21.15
2022-10-18T04:30:16.500Z,21.11
2022-10-18T04:35:27.362Z,21.06
2022-10-18T04:40:39.986Z,21.02
2022-10-18T04:45:52.756Z,20.98
2022-10-18T04:51:05.622Z,20.95
2022-10-18T04:56:12.395Z,20.95
2022-10-18T05:01:18.529Z,20.94
2022-10-18T05:06:28.227Z,20.93
2022-10-18T05:11:35.840Z,20.93
2022-10-18T05:16:47.156Z,20.93
2022-10-18T05:21:56.053Z,20.93
2022-10-18T05:27:01.116Z,20.96
2022-10-18T05:32:04.777Z,20.96
2022-10-18T05:37:15.870Z,21.00
2022-10-18T05:42:31.379Z,21.01
2022-10-18T05:47:38.372Z,21.03
2022-10-18T05:52:46.632Z,21.03
2022-10-18T05:57:54.603Z,21.05
2022-10-18T06:03:05.377Z,21.06
2022-10-18T06:08:18.039Z,21.04
2022-10-18T06:13:30.071Z,21.03
2022-10-18T06:18:36.883Z,21.03
2022-10-18T06:23:56.046Z,21.04
2022-10-18T06:29:04.237Z,21.10
2022-10-18T06:34:22.719Z,21.16
2022-10-18T06:39:30.431Z,21.24
2022-10-18T06:44:36.247Z,21.28
2022-10-18T06:49:43.256Z,21.30
2022-10-18T06:54:48.762Z,21.32
2022-10-18T06:59:58.233Z,21.35
2022-10-18T07:05:03.991Z,21.41
2022-10-18T07:10:13.122Z,21.48
2022-10-18T07:15:23.286Z,21.57
2022-10-18T07:20:41.030Z,21.71
2022-10-18T07:25:56.017Z,21.93
2022-10-18T07:31:12.674Z,21.85
2022-10-18T07:36:18.318Z,21.83
2022-10-18T07:41:30.259Z,21.91
2022-10-18T07:46:36.672Z,22.13
2022-10-18T07:51:48.731Z,22.97
2022-10-18T07:56:57.652Z,23.69
2022-10-18T08:02:06.430Z,24.35
2022-10-18T08:07:15.229Z,24.85
2022-10-18T08:12:25.129Z,25.23
2022-10-18T08:17:34.819Z,25.61
2022-10-18T08:28:16.448Z,26.23
2022-10-18T08:33:25.232Z,26.43
2022-10-18T08:38:36.264Z,26.60
2022-10-18T08:44:20.830Z,26.83
2022-10-18T08:49:51.478Z,27.09
2022-10-18T08:55:12.580Z,27.32
2022-10-18T09:00:32.895Z,27.31
2022-10-18T09:06:05.721Z,27.40
2022-10-18T09:11:39.501Z,27.42
2022-10-18T09:17:17.209Z,27.53
2022-10-18T09:22:52.836Z,27.79
2022-10-18T09:28:37.589Z,28.05
2022-10-18T09:34:16.283Z,28.22
2022-10-18T09:45:03.574Z,28.56
2022-10-18T09:50:29.585Z,28.59
2022-10-18T09:55:56.527Z,28.55
2022-10-18T10:01:01.024Z,28.61
2022-10-18T10:06:41.486Z,28.74
2022-10-18T10:12:00.132Z,28.90
2022-10-18T10:17:30.406Z,29.11
2022-10-18T10:22:40.522Z,29.14
2022-10-18T10:27:48.116Z,29.08
2022-10-18T10:33:02.186Z,29.21
2022-10-18T10:38:11.259Z,29.26
2022-10-18T10:49:38.529Z,29.56
2022-10-18T10:54:51.192Z,29.66
2022-10-18T11:05:34.594Z,29.78
2022-10-18T11:11:30.980Z,29.86
2022-10-18T11:17:18.785Z,29.65
2022-10-18T11:22:42.668Z,29.35
2022-10-18T11:28:13.714Z,29.18
2022-10-18T11:34:10.320Z,29.18
2022-10-18T11:39:48.946Z,29.29
2022-10-18T11:45:22.085Z,29.27
2022-10-18T11:57:12.821Z,29.52
2022-10-18T12:02:59.183Z,29.51
2022-10-18T12:08:22.213Z,29.57
2022-10-18T12:13:42.799Z,29.50
2022-10-18T12:19:07.800Z,29.10
2022-10-18T12:24:34.240Z,28.80
2022-10-18T12:30:03.577Z,28.63
2022-10-18T12:35:25.701Z,28.58
2022-10-18T12:40:57.290Z,28.66
2022-10-18T12:52:12.144Z,28.52
2022-10-18T13:03:27.578Z,28.51
2022-10-18T13:08:52.822Z,28.06
2022-10-18T13:20:27.912Z,27.50
2022-10-18T13:25:46.185Z,27.46
2022-10-18T13:31:22.538Z,27.18
2022-10-18T13:36:50.308Z,27.02
2022-10-18T13:41:57.711Z,26.98
2022-10-18T13:47:16.162Z,27.02
2022-10-18T13:53:23.831Z,27.01
2022-10-18T13:59:38.149Z,27.01
2022-10-18T14:05:25.381Z,26.80
2022-10-18T14:11:26.033Z,26.67
2022-10-18T14:16:43.407Z,26.60
2022-10-18T14:22:17.879Z,26.46
2022-10-18T14:27:29.709Z,26.30
2022-10-18T14:32:36.495Z,26.41
2022-10-18T14:37:53.619Z,26.37
2022-10-18T14:48:27.909Z,26.22
2022-10-18T14:53:44.628Z,26.20
2022-10-18T14:59:04.562Z,25.97
2022-10-18T15:04:14.629Z,25.81
2022-10-18T15:09:25.893Z,25.70
2022-10-18T15:14:46.930Z,25.73
2022-10-18T15:20:27.652Z,25.67
2022-10-18T15:25:43.887Z,25.52
2022-10-18T15:30:48.048Z,25.51
2022-10-18T15:35:55.248Z,25.47
2022-10-18T15:41:04.809Z,25.43
2022-10-18T15:46:33.838Z,25.44
2022-10-18T15:52:18.687Z,25.44
2022-10-18T15:57:37.216Z,25.46
2022-10-18T16:03:07.891Z,25.42
2022-10-18T16:08:22.573Z,25.34
2022-10-18T16:13:29.894Z,25.31
2022-10-18T16:18:39.982Z,25.26
2022-10-18T16:23:42.920Z,25.21
2022-10-18T16:28:49.554Z,25.14
2022-10-18T16:33:59.975Z,25.07
2022-10-18T16:39:14.729Z,25.01
2022-10-18T16:44:29.791Z,24.95
2022-10-18T16:49:35.479Z,24.86
2022-10-18T16:54:42.208Z,24.78
2022-10-18T16:59:48.924Z,24.73
2022-10-18T17:05:01.309Z,24.71
2022-10-18T17:10:11.361Z,24.67
2022-10-18T17:15:32.813Z,24.62
2022-10-18T17:20:41.399Z,24.60
2022-10-18T17:26:04.831Z,24.53
2022-10-18T17:31:19.614Z,24.46
2022-10-18T17:36:33.740Z,24.39
2022-10-18T17:41:49.156Z,24.35
2022-10-18T17:46:58.912Z,24.32
2022-10-18T17:52:15.583Z,24.28
2022-10-18T17:57:21.282Z,24.25
2022-10-18T18:02:29.641Z,24.20
2022-10-18T18:07:35.944Z,24.16
2022-10-18T18:12:50.558Z,24.10
2022-10-18T18:18:02.882Z,24.08
2022-10-18T18:23:16.548Z,24.06
2022-10-18T18:28:33.613Z,24.03
2022-10-18T18:34:05.762Z,24.01
2022-10-18T18:39:20.785Z,23.99
2022-10-18T18:44:28.702Z,23.96
2022-10-18T18:49:33.916Z,23.95
2022-10-18T18:54:36.140Z,23.91
2022-10-18T18:59:53.402Z,23.90
2022-10-18T19:05:10.611Z,23.87
2022-10-18T19:10:23.383Z,23.84
2022-10-18T19:15:31.572Z,23.81
2022-10-18T19:20:45.786Z,23.80
2022-10-18T19:25:57.848Z,23.77
2022-10-18T19:31:03.982Z,23.73
2022-10-18T19:36:14.192Z,23.72
2022-10-18T19:41:38.325Z,23.71
2022-10-18T19:46:44.681Z,23.71
2022-10-18T19:51:54.904Z,23.70
2022-10-18T19:57:05.617Z,23.66
2022-10-18T20:02:22.742Z,23.62
2022-10-18T20:07:29.515Z,23.60
2022-10-18T20:12:31.616Z,23.55
2022-10-18T20:17:37.187Z,23.54
2022-10-18T20:23:06.807Z,23.53
2022-10-18T20:28:20.396Z,23.54
2022-10-18T20:33:44.029Z,23.55
2022-10-18T20:38:57.754Z,23.57
2022-10-18T20:44:16.050Z,23.55
2022-10-18T20:49:29.542Z,23.53
2022-10-18T20:54:40.829Z,23.50
2022-10-18T21:00:10.513Z,23.45
2022-10-18T21:05:23.609Z,23.40
2022-10-18T21:10:30.307Z,23.35
2022-10-18T21:15:32.920Z,23.33
2022-10-18T21:20:35.689Z,23.31
2022-10-18T21:25:50.971Z,23.29
2022-10-18T21:30:54.400Z,23.23
2022-10-18T21:36:01.185Z,23.18
2022-10-18T21:41:14.236Z,23.15
2022-10-18T21:46:35.672Z,23.10
2022-10-18T21:51:48.084Z,23.02
2022-10-18T21:56:53.976Z,22.95
2022-10-18T22:02:01.671Z,22.87
2022-10-18T22:07:07.091Z,22.82
2022-10-18T22:12:20.290Z,22.78
2022-10-18T22:17:29.125Z,22.73
2022-10-18T22:22:39.773Z,22.68
2022-10-18T22:27:50.648Z,22.65
2022-10-18T22:32:53.491Z,22.63
2022-10-18T22:37:57.043Z,22.58
2022-10-18T22:43:12.880Z,22.55
2022-10-18T22:48:21.042Z,22.50
2022-10-18T22:53:30.169Z,22.42
2022-10-18T22:58:33.376Z,22.38
2022-10-18T23:09:06.659Z,22.23
2022-10-18T23:14:13.397Z,22.15
2022-10-18T23:24:35.614Z,22.06
2022-10-18T23:29:41.356Z,22.06
2022-10-18T23:34:53.043Z,22.05
2022-10-18T23:39:59.584Z,22.02
2022-10-18T23:45:06.836Z,22.01
2022-10-18T23:50:27.316Z,21.99
2022-10-18T23:55:40.050Z,21.97
